Terminal Aerodrome Forecast
Issued by NWS

Home | Current Version | Previous Version | Graphics & Text | Print | Product List | Glossary On
Versions: 1 2 3 4 5 6 7 8 9 10 11 12 13 14 15 16 17
696
FTUS43 KBIS 210528
TAFDIK
TAF
KDIK 210528Z 2106/2206 VRB04KT P6SM SCT250
     FM210900 26004KT P6SM SCT250
     FM211500 30009KT P6SM SCT200
     FM211900 31012KT P6SM SCT200=

USA.gov is the U.S. government's official web portal to all federal, state and local government web resources and services.